sensor_id;sensor_type;location;lat;lon;timestamp;P1;durP1;ratioP1;P2;durP2;ratioP2
25503;SDS011;13410;52.114;5.718;2023-06-22T00:01:01;8.18;;;5.38;;
25503;SDS011;13410;52.114;5.718;2023-06-22T00:03:27;6.60;;;5.50;;
25503;SDS011;13410;52.114;5.718;2023-06-22T00:05:52;6.53;;;5.80;;
25503;SDS011;13410;52.114;5.718;2023-06-22T00:08:18;8.43;;;6.20;;
25503;SDS011;13410;52.114;5.718;2023-06-22T00:10:44;6.38;;;5.78;;
25503;SDS011;13410;52.114;5.718;2023-06-22T00:13:11;6.82;;;5.47;;
25503;SDS011;13410;52.114;5.718;2023-06-22T00:15:37;7.85;;;5.82;;
25503;SDS011;13410;52.114;5.718;2023-06-22T00:18:04;6.72;;;6.03;;
25503;SDS011;13410;52.114;5.718;2023-06-22T00:20:34;9.20;;;6.78;;
25503;SDS011;13410;52.114;5.718;2023-06-22T00:23:02;7.00;;;5.97;;
25503;SDS011;13410;52.114;5.718;2023-06-22T00:25:35;7.05;;;6.15;;
25503;SDS011;13410;52.114;5.718;2023-06-22T00:28:02;9.15;;;6.32;;
25503;SDS011;13410;52.114;5.718;2023-06-22T00:30:28;7.82;;;6.32;;
25503;SDS011;13410;52.114;5.718;2023-06-22T00:32:55;7.38;;;5.43;;
25503;SDS011;13410;52.114;5.718;2023-06-22T00:35:20;8.27;;;5.38;;
25503;SDS011;13410;52.114;5.718;2023-06-22T00:37:46;7.47;;;5.50;;
25503;SDS011;13410;52.114;5.718;2023-06-22T00:40:12;7.68;;;5.78;;
25503;SDS011;13410;52.114;5.718;2023-06-22T00:42:38;6.70;;;6.00;;
25503;SDS011;13410;52.114;5.718;2023-06-22T00:45:04;7.55;;;6.85;;
25503;SDS011;13410;52.114;5.718;2023-06-22T00:47:31;9.27;;;7.00;;
25503;SDS011;13410;52.114;5.718;2023-06-22T00:49:57;10.48;;;7.20;;
25503;SDS011;13410;52.114;5.718;2023-06-22T00:52:23;5.72;;;4.80;;
25503;SDS011;13410;52.114;5.718;2023-06-22T00:54:54;5.80;;;5.13;;
25503;SDS011;13410;52.114;5.718;2023-06-22T00:57:21;5.32;;;4.78;;
25503;SDS011;13410;52.114;5.718;2023-06-22T00:59:50;11.60;;;6.93;;
25503;SDS011;13410;52.114;5.718;2023-06-22T01:02:16;6.65;;;5.88;;
25503;SDS011;13410;52.114;5.718;2023-06-22T01:04:42;7.80;;;6.70;;
25503;SDS011;13410;52.114;5.718;2023-06-22T01:07:21;8.02;;;7.22;;
25503;SDS011;13410;52.114;5.718;2023-06-22T01:12:32;6.22;;;5.38;;
25503;SDS011;13410;52.114;5.718;2023-06-22T01:17:48;5.82;;;5.22;;
25503;SDS011;13410;52.114;5.718;2023-06-22T01:20:17;7.55;;;6.10;;
25503;SDS011;13410;52.114;5.718;2023-06-22T01:22:54;6.35;;;5.45;;
25503;SDS011;13410;52.114;5.718;2023-06-22T01:25:46;6.45;;;5.10;;
25503;SDS011;13410;52.114;5.718;2023-06-22T01:28:38;6.25;;;5.57;;
25503;SDS011;13410;52.114;5.718;2023-06-22T01:31:12;9.05;;;6.03;;
25503;SDS011;13410;52.114;5.718;2023-06-22T01:33:43;6.45;;;5.10;;
25503;SDS011;13410;52.114;5.718;2023-06-22T01:36:14;9.05;;;7.18;;
25503;SDS011;13410;52.114;5.718;2023-06-22T01:38:41;7.05;;;6.35;;
25503;SDS011;13410;52.114;5.718;2023-06-22T01:41:08;8.18;;;7.25;;
25503;SDS011;13410;52.114;5.718;2023-06-22T01:43:34;8.63;;;6.90;;
25503;SDS011;13410;52.114;5.718;2023-06-22T01:46:01;7.20;;;5.28;;
25503;SDS011;13410;52.114;5.718;2023-06-22T01:48:28;8.25;;;6.03;;
25503;SDS011;13410;52.114;5.718;2023-06-22T01:50:54;7.40;;;6.55;;
25503;SDS011;13410;52.114;5.718;2023-06-22T01:53:21;7.03;;;6.30;;
25503;SDS011;13410;52.114;5.718;2023-06-22T01:55:47;8.88;;;6.57;;
25503;SDS011;13410;52.114;5.718;2023-06-22T01:58:13;7.47;;;6.78;;
25503;SDS011;13410;52.114;5.718;2023-06-22T02:00:39;7.93;;;5.70;;
25503;SDS011;13410;52.114;5.718;2023-06-22T02:03:11;6.90;;;5.03;;
25503;SDS011;13410;52.114;5.718;2023-06-22T02:05:43;8.40;;;6.00;;
25503;SDS011;13410;52.114;5.718;2023-06-22T02:08:28;6.85;;;5.63;;
25503;SDS011;13410;52.114;5.718;2023-06-22T02:10:56;6.90;;;5.50;;
25503;SDS011;13410;52.114;5.718;2023-06-22T02:13:24;6.93;;;5.85;;
25503;SDS011;13410;52.114;5.718;2023-06-22T02:15:50;8.30;;;6.00;;
25503;SDS011;13410;52.114;5.718;2023-06-22T02:18:16;7.93;;;6.20;;
25503;SDS011;13410;52.114;5.718;2023-06-22T02:20:42;7.10;;;5.18;;
25503;SDS011;13410;52.114;5.718;2023-06-22T02:23:08;6.72;;;6.03;;
25503;SDS011;13410;52.114;5.718;2023-06-22T02:25:34;8.30;;;6.88;;
25503;SDS011;13410;52.114;5.718;2023-06-22T02:28:00;8.05;;;6.30;;
25503;SDS011;13410;52.114;5.718;2023-06-22T02:30:26;8.20;;;6.65;;
25503;SDS011;13410;52.114;5.718;2023-06-22T02:32:52;8.75;;;7.32;;
25503;SDS011;13410;52.114;5.718;2023-06-22T02:35:24;8.10;;;5.82;;
25503;SDS011;13410;52.114;5.718;2023-06-22T02:37:56;6.25;;;5.25;;
25503;SDS011;13410;52.114;5.718;2023-06-22T02:40:23;8.88;;;5.40;;
25503;SDS011;13410;52.114;5.718;2023-06-22T02:42:48;6.68;;;4.85;;
25503;SDS011;13410;52.114;5.718;2023-06-22T02:45:14;7.85;;;5.38;;
25503;SDS011;13410;52.114;5.718;2023-06-22T02:47:39;5.07;;;4.53;;
25503;SDS011;13410;52.114;5.718;2023-06-22T02:50:05;4.60;;;3.75;;
25503;SDS011;13410;52.114;5.718;2023-06-22T02:52:31;7.78;;;5.30;;
25503;SDS011;13410;52.114;5.718;2023-06-22T02:54:56;5.13;;;4.60;;
25503;SDS011;13410;52.114;5.718;2023-06-22T02:57:22;5.95;;;5.05;;
25503;SDS011;13410;52.114;5.718;2023-06-22T02:59:47;6.43;;;5.47;;
25503;SDS011;13410;52.114;5.718;2023-06-22T03:02:13;11.65;;;6.50;;
25503;SDS011;13410;52.114;5.718;2023-06-22T03:04:39;7.85;;;6.22;;
25503;SDS011;13410;52.114;5.718;2023-06-22T03:07:04;6.07;;;5.43;;
25503;SDS011;13410;52.114;5.718;2023-06-22T03:09:30;7.30;;;6.22;;
25503;SDS011;13410;52.114;5.718;2023-06-22T03:11:56;6.97;;;5.88;;
25503;SDS011;13410;52.114;5.718;2023-06-22T03:14:21;6.57;;;5.38;;
25503;SDS011;13410;52.114;5.718;2023-06-22T03:16:47;7.78;;;5.63;;
25503;SDS011;13410;52.114;5.718;2023-06-22T03:19:13;7.20;;;6.07;;
25503;SDS011;13410;52.114;5.718;2023-06-22T03:21:38;6.25;;;5.45;;
25503;SDS011;13410;52.114;5.718;2023-06-22T03:24:05;7.07;;;6.35;;
25503;SDS011;13410;52.114;5.718;2023-06-22T03:26:31;9.02;;;6.75;;
25503;SDS011;13410;52.114;5.718;2023-06-22T03:28:57;10.68;;;6.28;;
25503;SDS011;13410;52.114;5.718;2023-06-22T03:31:23;11.07;;;6.78;;
25503;SDS011;13410;52.114;5.718;2023-06-22T03:33:50;6.68;;;5.72;;
25503;SDS011;13410;52.114;5.718;2023-06-22T03:36:16;9.43;;;6.70;;
25503;SDS011;13410;52.114;5.718;2023-06-22T03:38:44;7.03;;;6.32;;
25503;SDS011;13410;52.114;5.718;2023-06-22T03:41:10;7.75;;;5.97;;
25503;SDS011;13410;52.114;5.718;2023-06-22T03:43:35;9.77;;;5.97;;
25503;SDS011;13410;52.114;5.718;2023-06-22T03:46:01;8.55;;;6.82;;
25503;SDS011;13410;52.114;5.718;2023-06-22T03:48:26;6.82;;;6.05;;
25503;SDS011;13410;52.114;5.718;2023-06-22T03:50:52;9.77;;;7.18;;
25503;SDS011;13410;52.114;5.718;2023-06-22T03:53:17;7.72;;;6.22;;
25503;SDS011;13410;52.114;5.718;2023-06-22T03:55:50;7.18;;;5.38;;
25503;SDS011;13410;52.114;5.718;2023-06-22T03:58:17;10.02;;;7.38;;
25503;SDS011;13410;52.114;5.718;2023-06-22T04:00:44;9.40;;;7.32;;
25503;SDS011;13410;52.114;5.718;2023-06-22T04:03:14;8.82;;;6.65;;
25503;SDS011;13410;52.114;5.718;2023-06-22T04:05:40;7.10;;;6.32;;
25503;SDS011;13410;52.114;5.718;2023-06-22T04:08:06;13.23;;;7.57;;
25503;SDS011;13410;52.114;5.718;2023-06-22T04:10:32;14.50;;;8.18;;
25503;SDS011;13410;52.114;5.718;2023-06-22T04:12:57;8.82;;;6.63;;
25503;SDS011;13410;52.114;5.718;2023-06-22T04:15:23;12.80;;;8.65;;
25503;SDS011;13410;52.114;5.718;2023-06-22T04:17:49;13.38;;;11.20;;
25503;SDS011;13410;52.114;5.718;2023-06-22T04:20:14;14.32;;;11.98;;
25503;SDS011;13410;52.114;5.718;2023-06-22T04:22:40;19.13;;;12.52;;
25503;SDS011;13410;52.114;5.718;2023-06-22T04:25:05;13.20;;;11.13;;
25503;SDS011;13410;52.114;5.718;2023-06-22T04:27:34;12.82;;;11.18;;
25503;SDS011;13410;52.114;5.718;2023-06-22T04:30:05;15.50;;;12.45;;
25503;SDS011;13410;52.114;5.718;2023-06-22T04:32:32;15.20;;;12.15;;
25503;SDS011;13410;52.114;5.718;2023-06-22T04:35:00;13.80;;;10.95;;
25503;SDS011;13410;52.114;5.718;2023-06-22T04:37:27;11.82;;;10.23;;
25503;SDS011;13410;52.114;5.718;2023-06-22T04:39:52;13.20;;;10.77;;
25503;SDS011;13410;52.114;5.718;2023-06-22T04:42:18;15.88;;;11.43;;
25503;SDS011;13410;52.114;5.718;2023-06-22T04:44:46;19.00;;;12.20;;
25503;SDS011;13410;52.114;5.718;2023-06-22T04:47:11;20.08;;;12.93;;
25503;SDS011;13410;52.114;5.718;2023-06-22T04:49:37;15.75;;;13.07;;
25503;SDS011;13410;52.114;5.718;2023-06-22T04:52:06;17.88;;;13.88;;
25503;SDS011;13410;52.114;5.718;2023-06-22T04:54:33;15.63;;;12.20;;
25503;SDS011;13410;52.114;5.718;2023-06-22T04:57:00;12.48;;;11.18;;
25503;SDS011;13410;52.114;5.718;2023-06-22T04:59:27;13.60;;;11.80;;
25503;SDS011;13410;52.114;5.718;2023-06-22T05:01:58;20.85;;;14.82;;
25503;SDS011;13410;52.114;5.718;2023-06-22T05:04:25;20.23;;;17.05;;
25503;SDS011;13410;52.114;5.718;2023-06-22T05:06:53;20.75;;;17.40;;
25503;SDS011;13410;52.114;5.718;2023-06-22T05:09:19;19.60;;;16.83;;
25503;SDS011;13410;52.114;5.718;2023-06-22T05:11:45;20.10;;;16.02;;
25503;SDS011;13410;52.114;5.718;2023-06-22T05:14:11;19.25;;;16.95;;
25503;SDS011;13410;52.114;5.718;2023-06-22T05:16:37;20.75;;;17.20;;
25503;SDS011;13410;52.114;5.718;2023-06-22T05:19:04;22.83;;;17.77;;
25503;SDS011;13410;52.114;5.718;2023-06-22T05:21:30;20.30;;;15.77;;
25503;SDS011;13410;52.114;5.718;2023-06-22T05:23:56;22.55;;;19.42;;
25503;SDS011;13410;52.114;5.718;2023-06-22T05:26:27;19.02;;;16.90;;
25503;SDS011;13410;52.114;5.718;2023-06-22T05:28:53;21.77;;;19.38;;
25503;SDS011;13410;52.114;5.718;2023-06-22T05:31:18;23.35;;;20.85;;
25503;SDS011;13410;52.114;5.718;2023-06-22T05:33:44;25.08;;;20.88;;
25503;SDS011;13410;52.114;5.718;2023-06-22T05:36:11;22.30;;;18.05;;
25503;SDS011;13410;52.114;5.718;2023-06-22T05:38:37;24.25;;;21.65;;
25503;SDS011;13410;52.114;5.718;2023-06-22T05:41:03;23.30;;;20.80;;
25503;SDS011;13410;52.114;5.718;2023-06-22T05:43:29;25.42;;;21.58;;
25503;SDS011;13410;52.114;5.718;2023-06-22T05:45:55;25.92;;;21.85;;
25503;SDS011;13410;52.114;5.718;2023-06-22T05:48:21;25.30;;;22.20;;
25503;SDS011;13410;52.114;5.718;2023-06-22T05:50:47;25.17;;;22.33;;
25503;SDS011;13410;52.114;5.718;2023-06-22T05:53:12;26.15;;;22.20;;
25503;SDS011;13410;52.114;5.718;2023-06-22T05:55:38;24.67;;;21.55;;
25503;SDS011;13410;52.114;5.718;2023-06-22T05:58:03;25.60;;;21.48;;
25503;SDS011;13410;52.114;5.718;2023-06-22T06:00:29;25.80;;;21.50;;
25503;SDS011;13410;52.114;5.718;2023-06-22T06:02:55;23.23;;;19.23;;
25503;SDS011;13410;52.114;5.718;2023-06-22T06:05:20;24.40;;;17.98;;
25503;SDS011;13410;52.114;5.718;2023-06-22T06:07:48;21.63;;;19.33;;
25503;SDS011;13410;52.114;5.718;2023-06-22T06:10:13;22.05;;;19.08;;
25503;SDS011;13410;52.114;5.718;2023-06-22T06:12:39;19.10;;;17.05;;
25503;SDS011;13410;52.114;5.718;2023-06-22T06:15:04;20.40;;;17.42;;
25503;SDS011;13410;52.114;5.718;2023-06-22T06:17:30;19.48;;;16.25;;
25503;SDS011;13410;52.114;5.718;2023-06-22T06:19:56;16.98;;;15.20;;
25503;SDS011;13410;52.114;5.718;2023-06-22T06:22:23;16.88;;;14.15;;
25503;SDS011;13410;52.114;5.718;2023-06-22T06:24:49;18.20;;;14.88;;
25503;SDS011;13410;52.114;5.718;2023-06-22T06:27:15;19.08;;;14.88;;
25503;SDS011;13410;52.114;5.718;2023-06-22T06:29:43;16.13;;;14.15;;
25503;SDS011;13410;52.114;5.718;2023-06-22T06:32:10;17.50;;;14.75;;
25503;SDS011;13410;52.114;5.718;2023-06-22T06:34:36;16.77;;;13.95;;
25503;SDS011;13410;52.114;5.718;2023-06-22T06:37:02;19.35;;;15.05;;
25503;SDS011;13410;52.114;5.718;2023-06-22T06:39:28;18.23;;;14.63;;
25503;SDS011;13410;52.114;5.718;2023-06-22T06:41:53;15.80;;;12.43;;
25503;SDS011;13410;52.114;5.718;2023-06-22T06:44:19;16.00;;;12.80;;
25503;SDS011;13410;52.114;5.718;2023-06-22T06:46:44;16.75;;;13.38;;
25503;SDS011;13410;52.114;5.718;2023-06-22T06:49:10;15.90;;;13.35;;
25503;SDS011;13410;52.114;5.718;2023-06-22T06:51:35;17.05;;;13.93;;
25503;SDS011;13410;52.114;5.718;2023-06-22T06:54:01;16.55;;;12.25;;
25503;SDS011;13410;52.114;5.718;2023-06-22T06:56:28;14.15;;;11.82;;
25503;SDS011;13410;52.114;5.718;2023-06-22T06:58:55;14.82;;;11.88;;
25503;SDS011;13410;52.114;5.718;2023-06-22T07:01:20;14.80;;;11.75;;
25503;SDS011;13410;52.114;5.718;2023-06-22T07:03:46;14.35;;;12.50;;
25503;SDS011;13410;52.114;5.718;2023-06-22T07:06:13;16.15;;;12.98;;
25503;SDS011;13410;52.114;5.718;2023-06-22T07:08:38;14.63;;;11.60;;
25503;SDS011;13410;52.114;5.718;2023-06-22T07:11:04;14.68;;;12.63;;
25503;SDS011;13410;52.114;5.718;2023-06-22T07:13:30;16.02;;;12.55;;
25503;SDS011;13410;52.114;5.718;2023-06-22T07:15:56;16.35;;;13.13;;
25503;SDS011;13410;52.114;5.718;2023-06-22T07:18:21;14.27;;;11.75;;
25503;SDS011;13410;52.114;5.718;2023-06-22T07:20:47;16.75;;;13.32;;
25503;SDS011;13410;52.114;5.718;2023-06-22T07:23:12;17.85;;;12.85;;
25503;SDS011;13410;52.114;5.718;2023-06-22T07:25:38;13.57;;;12.13;;
25503;SDS011;13410;52.114;5.718;2023-06-22T07:28:04;16.70;;;12.20;;
25503;SDS011;13410;52.114;5.718;2023-06-22T07:30:31;14.88;;;12.13;;
25503;SDS011;13410;52.114;5.718;2023-06-22T07:32:58;16.85;;;12.32;;
25503;SDS011;13410;52.114;5.718;2023-06-22T07:35:28;13.97;;;12.43;;
25503;SDS011;13410;52.114;5.718;2023-06-22T07:37:54;15.93;;;12.20;;
25503;SDS011;13410;52.114;5.718;2023-06-22T07:40:20;16.45;;;12.38;;
25503;SDS011;13410;52.114;5.718;2023-06-22T07:42:46;13.48;;;11.63;;
25503;SDS011;13410;52.114;5.718;2023-06-22T07:45:13;16.83;;;11.15;;
25503;SDS011;13410;52.114;5.718;2023-06-22T07:47:39;15.93;;;11.77;;
25503;SDS011;13410;52.114;5.718;2023-06-22T07:50:05;18.23;;;11.43;;
25503;SDS011;13410;52.114;5.718;2023-06-22T07:52:31;15.10;;;11.85;;
25503;SDS011;13410;52.114;5.718;2023-06-22T07:54:57;15.02;;;11.45;;
25503;SDS011;13410;52.114;5.718;2023-06-22T07:57:23;16.52;;;11.18;;
25503;SDS011;13410;52.114;5.718;2023-06-22T07:59:56;16.80;;;11.13;;
25503;SDS011;13410;52.114;5.718;2023-06-22T08:02:23;13.75;;;11.38;;
25503;SDS011;13410;52.114;5.718;2023-06-22T08:04:49;13.05;;;11.20;;
25503;SDS011;13410;52.114;5.718;2023-06-22T08:07:14;16.27;;;11.30;;
25503;SDS011;13410;52.114;5.718;2023-06-22T08:09:45;11.25;;;9.98;;
25503;SDS011;13410;52.114;5.718;2023-06-22T08:12:11;14.45;;;10.63;;
25503;SDS011;13410;52.114;5.718;2023-06-22T08:14:38;12.60;;;10.75;;
25503;SDS011;13410;52.114;5.718;2023-06-22T08:17:04;15.48;;;11.25;;
25503;SDS011;13410;52.114;5.718;2023-06-22T08:19:30;14.70;;;11.25;;
25503;SDS011;13410;52.114;5.718;2023-06-22T08:21:55;12.80;;;10.65;;
25503;SDS011;13410;52.114;5.718;2023-06-22T08:24:22;12.80;;;11.13;;
25503;SDS011;13410;52.114;5.718;2023-06-22T08:26:51;11.73;;;10.00;;
25503;SDS011;13410;52.114;5.718;2023-06-22T08:29:16;11.48;;;10.05;;
25503;SDS011;13410;52.114;5.718;2023-06-22T08:31:42;12.43;;;9.55;;
25503;SDS011;13410;52.114;5.718;2023-06-22T08:34:08;13.48;;;9.60;;
25503;SDS011;13410;52.114;5.718;2023-06-22T08:36:33;17.17;;;10.95;;
25503;SDS011;13410;52.114;5.718;2023-06-22T08:39:02;15.07;;;8.90;;
25503;SDS011;13410;52.114;5.718;2023-06-22T08:41:28;11.23;;;9.05;;
25503;SDS011;13410;52.114;5.718;2023-06-22T08:43:54;13.45;;;9.25;;
25503;SDS011;13410;52.114;5.718;2023-06-22T08:46:20;9.77;;;8.77;;
25503;SDS011;13410;52.114;5.718;2023-06-22T08:48:48;11.30;;;9.02;;
25503;SDS011;13410;52.114;5.718;2023-06-22T08:51:14;10.20;;;9.10;;
25503;SDS011;13410;52.114;5.718;2023-06-22T08:53:39;11.85;;;9.35;;
25503;SDS011;13410;52.114;5.718;2023-06-22T08:56:05;11.20;;;8.57;;
25503;SDS011;13410;52.114;5.718;2023-06-22T08:58:36;11.55;;;8.40;;
25503;SDS011;13410;52.114;5.718;2023-06-22T09:01:02;9.93;;;8.40;;
25503;SDS011;13410;52.114;5.718;2023-06-22T09:03:27;14.52;;;10.35;;
25503;SDS011;13410;52.114;5.718;2023-06-22T09:05:53;10.55;;;8.70;;
25503;SDS011;13410;52.114;5.718;2023-06-22T09:08:19;9.98;;;7.47;;
25503;SDS011;13410;52.114;5.718;2023-06-22T09:10:44;8.05;;;7.20;;
25503;SDS011;13410;52.114;5.718;2023-06-22T09:13:10;9.02;;;7.97;;
25503;SDS011;13410;52.114;5.718;2023-06-22T09:15:35;12.43;;;8.65;;
25503;SDS011;13410;52.114;5.718;2023-06-22T09:18:01;11.52;;;8.50;;
25503;SDS011;13410;52.114;5.718;2023-06-22T09:20:27;10.00;;;8.07;;
25503;SDS011;13410;52.114;5.718;2023-06-22T09:22:52;10.00;;;8.38;;
25503;SDS011;13410;52.114;5.718;2023-06-22T09:25:18;8.20;;;7.32;;
25503;SDS011;13410;52.114;5.718;2023-06-22T09:27:45;9.65;;;7.35;;
25503;SDS011;13410;52.114;5.718;2023-06-22T09:30:11;9.20;;;7.28;;
25503;SDS011;13410;52.114;5.718;2023-06-22T09:32:37;11.75;;;7.28;;
25503;SDS011;13410;52.114;5.718;2023-06-22T09:35:03;7.80;;;6.47;;
25503;SDS011;13410;52.114;5.718;2023-06-22T09:37:34;8.60;;;6.18;;
25503;SDS011;13410;52.114;5.718;2023-06-22T09:40:00;6.07;;;5.47;;
25503;SDS011;13410;52.114;5.718;2023-06-22T09:42:26;8.07;;;5.88;;
25503;SDS011;13410;52.114;5.718;2023-06-22T09:44:52;9.52;;;6.13;;
25503;SDS011;13410;52.114;5.718;2023-06-22T09:47:17;6.80;;;5.90;;
25503;SDS011;13410;52.114;5.718;2023-06-22T09:49:43;8.88;;;6.50;;
25503;SDS011;13410;52.114;5.718;2023-06-22T09:52:08;8.73;;;6.10;;
25503;SDS011;13410;52.114;5.718;2023-06-22T09:54:34;8.48;;;5.68;;
25503;SDS011;13410;52.114;5.718;2023-06-22T09:56:59;7.72;;;6.18;;
25503;SDS011;13410;52.114;5.718;2023-06-22T09:59:25;7.53;;;5.20;;
25503;SDS011;13410;52.114;5.718;2023-06-22T10:01:50;7.80;;;4.68;;
25503;SDS011;13410;52.114;5.718;2023-06-22T10:04:16;8.25;;;6.13;;
25503;SDS011;13410;52.114;5.718;2023-06-22T10:06:41;7.65;;;6.75;;
25503;SDS011;13410;52.114;5.718;2023-06-22T10:09:07;7.38;;;6.43;;
25503;SDS011;13410;52.114;5.718;2023-06-22T10:11:33;7.30;;;5.28;;
25503;SDS011;13410;52.114;5.718;2023-06-22T10:14:00;7.78;;;6.03;;
25503;SDS011;13410;52.114;5.718;2023-06-22T10:16:32;8.85;;;6.47;;
25503;SDS011;13410;52.114;5.718;2023-06-22T10:19:00;9.07;;;6.60;;
25503;SDS011;13410;52.114;5.718;2023-06-22T10:21:26;8.65;;;6.20;;
25503;SDS011;13410;52.114;5.718;2023-06-22T10:23:53;9.43;;;7.00;;
25503;SDS011;13410;52.114;5.718;2023-06-22T10:26:19;11.50;;;7.60;;
25503;SDS011;13410;52.114;5.718;2023-06-22T10:28:46;10.15;;;7.40;;
25503;SDS011;13410;52.114;5.718;2023-06-22T10:31:11;10.52;;;7.25;;
25503;SDS011;13410;52.114;5.718;2023-06-22T10:33:37;10.05;;;7.05;;
25503;SDS011;13410;52.114;5.718;2023-06-22T10:36:02;7.93;;;7.10;;
25503;SDS011;13410;52.114;5.718;2023-06-22T10:38:28;9.52;;;7.35;;
25503;SDS011;13410;52.114;5.718;2023-06-22T10:40:54;10.18;;;7.55;;
25503;SDS011;13410;52.114;5.718;2023-06-22T10:43:19;11.63;;;8.25;;
25503;SDS011;13410;52.114;5.718;2023-06-22T10:45:45;10.15;;;8.05;;
25503;SDS011;13410;52.114;5.718;2023-06-22T10:48:10;10.52;;;7.47;;
25503;SDS011;13410;52.114;5.718;2023-06-22T10:50:36;10.63;;;7.07;;
25503;SDS011;13410;52.114;5.718;2023-06-22T10:53:02;9.00;;;7.78;;
25503;SDS011;13410;52.114;5.718;2023-06-22T10:55:27;11.40;;;8.43;;
25503;SDS011;13410;52.114;5.718;2023-06-22T10:57:53;11.00;;;7.75;;
25503;SDS011;13410;52.114;5.718;2023-06-22T11:00:18;11.77;;;7.80;;
25503;SDS011;13410;52.114;5.718;2023-06-22T11:02:44;12.23;;;8.50;;
25503;SDS011;13410;52.114;5.718;2023-06-22T11:05:10;13.40;;;9.00;;
25503;SDS011;13410;52.114;5.718;2023-06-22T11:07:36;13.98;;;9.65;;
25503;SDS011;13410;52.114;5.718;2023-06-22T11:10:03;11.82;;;10.40;;
25503;SDS011;13410;52.114;5.718;2023-06-22T11:12:29;14.48;;;11.90;;
25503;SDS011;13410;52.114;5.718;2023-06-22T11:14:54;16.70;;;12.57;;
25503;SDS011;13410;52.114;5.718;2023-06-22T11:17:22;14.65;;;11.82;;
25503;SDS011;13410;52.114;5.718;2023-06-22T11:19:47;12.95;;;11.52;;
25503;SDS011;13410;52.114;5.718;2023-06-22T11:22:13;15.70;;;11.80;;
25503;SDS011;13410;52.114;5.718;2023-06-22T11:24:39;17.35;;;11.77;;
25503;SDS011;13410;52.114;5.718;2023-06-22T11:27:04;18.77;;;12.07;;
25503;SDS011;13410;52.114;5.718;2023-06-22T11:29:30;14.88;;;11.43;;
25503;SDS011;13410;52.114;5.718;2023-06-22T11:31:56;14.20;;;11.02;;
25503;SDS011;13410;52.114;5.718;2023-06-22T11:34:21;14.15;;;10.50;;
25503;SDS011;13410;52.114;5.718;2023-06-22T11:36:47;12.90;;;10.68;;
25503;SDS011;13410;52.114;5.718;2023-06-22T11:39:13;10.68;;;9.57;;
25503;SDS011;13410;52.114;5.718;2023-06-22T11:41:39;11.40;;;9.68;;
25503;SDS011;13410;52.114;5.718;2023-06-22T11:44:06;13.77;;;10.20;;
25503;SDS011;13410;52.114;5.718;2023-06-22T11:46:32;11.25;;;9.75;;
25503;SDS011;13410;52.114;5.718;2023-06-22T11:48:58;11.23;;;9.85;;
25503;SDS011;13410;52.114;5.718;2023-06-22T11:51:23;10.38;;;8.95;;
25503;SDS011;13410;52.114;5.718;2023-06-22T11:53:49;12.77;;;9.35;;
25503;SDS011;13410;52.114;5.718;2023-06-22T11:56:14;23.88;;;12.15;;
25503;SDS011;13410;52.114;5.718;2023-06-22T11:58:40;15.70;;;10.90;;
25503;SDS011;13410;52.114;5.718;2023-06-22T12:01:06;11.95;;;10.23;;
25503;SDS011;13410;52.114;5.718;2023-06-22T12:03:31;11.25;;;8.85;;
25503;SDS011;13410;52.114;5.718;2023-06-22T12:05:57;23.25;;;11.05;;
25503;SDS011;13410;52.114;5.718;2023-06-22T12:08:23;14.25;;;8.48;;
25503;SDS011;13410;52.114;5.718;2023-06-22T12:10:49;9.30;;;7.30;;
25503;SDS011;13410;52.114;5.718;2023-06-22T12:13:15;9.57;;;7.30;;
25503;SDS011;13410;52.114;5.718;2023-06-22T12:15:41;10.13;;;7.97;;
25503;SDS011;13410;52.114;5.718;2023-06-22T12:18:06;9.57;;;8.23;;
25503;SDS011;13410;52.114;5.718;2023-06-22T12:20:33;12.10;;;9.57;;
25503;SDS011;13410;52.114;5.718;2023-06-22T12:22:59;10.82;;;8.98;;
25503;SDS011;13410;52.114;5.718;2023-06-22T12:25:24;10.18;;;8.93;;
25503;SDS011;13410;52.114;5.718;2023-06-22T12:27:50;23.10;;;9.13;;
25503;SDS011;13410;52.114;5.718;2023-06-22T12:30:16;11.80;;;8.80;;
25503;SDS011;13410;52.114;5.718;2023-06-22T12:32:41;10.57;;;8.50;;
25503;SDS011;13410;52.114;5.718;2023-06-22T12:35:07;10.95;;;8.23;;
25503;SDS011;13410;52.114;5.718;2023-06-22T12:37:38;13.40;;;8.90;;
25503;SDS011;13410;52.114;5.718;2023-06-22T12:40:07;10.07;;;8.65;;
25503;SDS011;13410;52.114;5.718;2023-06-22T12:42:33;12.70;;;8.85;;
25503;SDS011;13410;52.114;5.718;2023-06-22T12:44:59;11.57;;;9.90;;
25503;SDS011;13410;52.114;5.718;2023-06-22T12:47:24;12.93;;;10.77;;
25503;SDS011;13410;52.114;5.718;2023-06-22T12:49:50;16.13;;;10.50;;
25503;SDS011;13410;52.114;5.718;2023-06-22T12:52:15;17.08;;;11.27;;
25503;SDS011;13410;52.114;5.718;2023-06-22T12:54:41;14.95;;;11.90;;
25503;SDS011;13410;52.114;5.718;2023-06-22T12:57:07;14.27;;;12.63;;
25503;SDS011;13410;52.114;5.718;2023-06-22T12:59:32;19.70;;;13.05;;
25503;SDS011;13410;52.114;5.718;2023-06-22T13:01:58;18.10;;;14.13;;
25503;SDS011;13410;52.114;5.718;2023-06-22T13:04:23;19.75;;;14.10;;
25503;SDS011;13410;52.114;5.718;2023-06-22T13:06:49;16.60;;;14.07;;
25503;SDS011;13410;52.114;5.718;2023-06-22T13:09:15;20.92;;;14.40;;
25503;SDS011;13410;52.114;5.718;2023-06-22T13:11:44;21.73;;;14.10;;
25503;SDS011;13410;52.114;5.718;2023-06-22T13:14:10;20.65;;;15.05;;
25503;SDS011;13410;52.114;5.718;2023-06-22T13:16:35;16.58;;;14.88;;
25503;SDS011;13410;52.114;5.718;2023-06-22T13:19:01;20.67;;;16.17;;
25503;SDS011;13410;52.114;5.718;2023-06-22T13:21:26;20.52;;;16.38;;
25503;SDS011;13410;52.114;5.718;2023-06-22T13:23:52;23.67;;;17.25;;
25503;SDS011;13410;52.114;5.718;2023-06-22T13:26:17;18.02;;;16.17;;
25503;SDS011;13410;52.114;5.718;2023-06-22T13:28:43;18.75;;;15.75;;
25503;SDS011;13410;52.114;5.718;2023-06-22T13:31:09;23.98;;;15.27;;
25503;SDS011;13410;52.114;5.718;2023-06-22T13:33:34;22.27;;;16.30;;
25503;SDS011;13410;52.114;5.718;2023-06-22T13:36:01;18.25;;;14.82;;
25503;SDS011;13410;52.114;5.718;2023-06-22T13:38:28;19.15;;;15.57;;
25503;SDS011;13410;52.114;5.718;2023-06-22T13:40:55;18.17;;;16.10;;
25503;SDS011;13410;52.114;5.718;2023-06-22T13:43:23;20.83;;;16.60;;
25503;SDS011;13410;52.114;5.718;2023-06-22T13:45:49;16.85;;;15.15;;
25503;SDS011;13410;52.114;5.718;2023-06-22T13:48:14;21.48;;;16.80;;
25503;SDS011;13410;52.114;5.718;2023-06-22T13:50:40;22.35;;;16.65;;
25503;SDS011;13410;52.114;5.718;2023-06-22T13:53:05;20.20;;;17.15;;
25503;SDS011;13410;52.114;5.718;2023-06-22T13:55:31;20.20;;;16.15;;
25503;SDS011;13410;52.114;5.718;2023-06-22T13:57:56;22.90;;;19.20;;
25503;SDS011;13410;52.114;5.718;2023-06-22T14:00:22;21.80;;;19.48;;
25503;SDS011;13410;52.114;5.718;2023-06-22T14:02:48;22.40;;;19.60;;
25503;SDS011;13410;52.114;5.718;2023-06-22T14:05:13;21.85;;;18.83;;
25503;SDS011;13410;52.114;5.718;2023-06-22T14:07:39;21.15;;;18.02;;
25503;SDS011;13410;52.114;5.718;2023-06-22T14:10:05;21.13;;;18.83;;
25503;SDS011;13410;52.114;5.718;2023-06-22T14:12:30;21.67;;;18.92;;
25503;SDS011;13410;52.114;5.718;2023-06-22T14:14:56;25.08;;;20.48;;
25503;SDS011;13410;52.114;5.718;2023-06-22T14:17:22;24.63;;;20.15;;
25503;SDS011;13410;52.114;5.718;2023-06-22T14:19:50;15.73;;;13.07;;
25503;SDS011;13410;52.114;5.718;2023-06-22T14:22:17;21.55;;;19.35;;
25503;SDS011;13410;52.114;5.718;2023-06-22T14:24:44;22.52;;;20.15;;
25503;SDS011;13410;52.114;5.718;2023-06-22T14:27:09;21.92;;;19.05;;
25503;SDS011;13410;52.114;5.718;2023-06-22T14:29:35;22.27;;;19.90;;
25503;SDS011;13410;52.114;5.718;2023-06-22T14:32:01;25.08;;;21.73;;
25503;SDS011;13410;52.114;5.718;2023-06-22T14:34:26;28.08;;;23.58;;